createdAt,value
2023-03-28T00:01:15.580Z,97483.03
2023-03-28T00:03:44.434Z,97482.38
2023-03-28T00:06:16.605Z,97483.69
2023-03-28T00:08:46.080Z,97479.19
2023-03-28T00:11:19.779Z,97478.78
2023-03-28T00:13:58.016Z,97486.81
2023-03-28T00:16:32.362Z,97483.00
2023-03-28T00:19:04.493Z,97486.84
2023-03-28T00:21:37.048Z,97486.19
2023-03-28T00:24:10.982Z,97492.94
2023-03-28T00:26:39.904Z,97494.56
2023-03-28T00:29:15.819Z,97493.31
2023-03-28T00:31:45.150Z,97491.91
2023-03-28T00:34:13.888Z,97502.69
2023-03-28T00:36:42.794Z,97506.06
2023-03-28T00:39:12.319Z,97506.06
2023-03-28T00:41:44.973Z,97511.75
2023-03-28T00:44:48.992Z,97511.97
2023-03-28T00:47:37.777Z,97517.31
2023-03-28T00:50:12.578Z,97523.53
2023-03-28T00:52:49.773Z,97508.25
2023-03-28T00:55:24.924Z,97522.00
2023-03-28T00:57:55.035Z,97518.28
2023-03-28T01:00:26.241Z,97521.66
2023-03-28T01:03:01.712Z,97527.72
2023-03-28T01:05:35.070Z,97530.88
2023-03-28T01:08:10.843Z,97528.19
2023-03-28T01:10:40.325Z,97532.75
2023-03-28T01:13:11.025Z,97536.84
2023-03-28T01:15:43.249Z,97537.78
2023-03-28T01:18:16.433Z,97534.97
2023-03-28T01:21:20.374Z,97538.13
2023-03-28T01:24:35.749Z,97534.03
2023-03-28T01:27:16.175Z,97539.28
2023-03-28T01:30:42.984Z,97540.94
2023-03-28T01:34:18.118Z,97550.47
2023-03-28T01:37:22.280Z,97560.63
2023-03-28T01:40:25.711Z,97557.50
2023-03-28T01:43:17.016Z,97555.72
2023-03-28T01:46:00.062Z,97562.38
2023-03-28T01:48:50.188Z,97572.16
2023-03-28T01:51:30.562Z,97566.22
2023-03-28T01:54:07.977Z,97563.78
2023-03-28T01:56:43.568Z,97569.47
2023-03-28T01:59:21.566Z,97569.59
2023-03-28T02:02:21.116Z,97578.34
2023-03-28T02:04:53.265Z,97573.00
2023-03-28T02:07:28.876Z,97567.88
2023-03-28T02:10:23.168Z,97568.09
2023-03-28T02:13:11.252Z,97567.97
2023-03-28T02:15:57.978Z,97575.66
2023-03-28T02:18:47.616Z,97578.81
2023-03-28T02:21:33.162Z,97576.94
2023-03-28T02:24:22.487Z,97576.00
2023-03-28T02:26:58.578Z,97582.41
2023-03-28T02:29:51.350Z,97583.34
2023-03-28T02:32:40.496Z,97577.25
2023-03-28T02:35:09.844Z,97580.28
2023-03-28T02:37:54.902Z,97590.44
2023-03-28T02:40:56.230Z,97585.53
2023-03-28T02:43:53.959Z,97580.66
2023-03-28T02:46:31.125Z,97582.19
2023-03-28T02:49:24.156Z,97581.28
2023-03-28T02:52:10.946Z,97579.53
2023-03-28T02:54:50.697Z,97584.53
2023-03-28T02:57:50.423Z,97588.16
2023-03-28T03:00:22.104Z,97582.69
2023-03-28T03:02:53.026Z,97585.59
2023-03-28T03:05:23.032Z,97589.78
2023-03-28T03:07:52.217Z,97584.31
2023-03-28T03:10:22.154Z,97590.97
2023-03-28T03:12:50.809Z,97588.75
2023-03-28T03:15:21.271Z,97595.63
2023-03-28T03:17:58.641Z,97595.38
2023-03-28T03:20:33.709Z,97597.16
2023-03-28T03:23:03.060Z,97599.34
2023-03-28T03:25:35.052Z,97596.41
2023-03-28T03:28:30.230Z,97599.09
2023-03-28T03:31:00.235Z,97602.84
2023-03-28T03:33:30.544Z,97598.31
2023-03-28T03:36:05.533Z,97597.84
2023-03-28T03:38:35.516Z,97608.06
2023-03-28T03:41:04.136Z,97609.47
2023-03-28T03:43:34.460Z,97619.25
2023-03-28T03:46:04.680Z,97611.91
2023-03-28T03:48:33.602Z,97619.13
2023-03-28T03:51:03.282Z,97627.63
2023-03-28T03:53:35.242Z,97621.59
2023-03-28T03:56:14.459Z,97628.25
2023-03-28T03:59:09.023Z,97625.00
2023-03-28T04:01:44.307Z,97629.00
2023-03-28T04:04:31.348Z,97636.09
2023-03-28T04:07:20.471Z,97628.28
2023-03-28T04:09:51.713Z,97630.50
2023-03-28T04:12:20.291Z,97629.09
2023-03-28T04:14:51.941Z,97631.56
2023-03-28T04:17:50.295Z,97635.75
2023-03-28T04:20:22.610Z,97627.47
2023-03-28T04:23:05.915Z,97636.19
2023-03-28T04:25:37.685Z,97645.91
2023-03-28T04:28:11.032Z,97640.06
2023-03-28T04:30:47.920Z,97647.44
2023-03-28T04:33:36.470Z,97641.81
2023-03-28T04:36:08.328Z,97641.34
2023-03-28T04:38:37.248Z,97644.50
2023-03-28T04:41:35.181Z,97640.66
2023-03-28T04:44:03.519Z,97649.16
2023-03-28T04:46:37.332Z,97656.16
2023-03-28T04:49:15.691Z,97648.22
2023-03-28T04:51:44.740Z,97655.66
2023-03-28T04:54:13.600Z,97653.47
2023-03-28T04:56:49.571Z,97657.41
2023-03-28T04:59:25.535Z,97661.00
2023-03-28T05:01:55.115Z,97662.53
2023-03-28T05:04:37.721Z,97668.34
2023-03-28T05:07:09.212Z,97670.47
2023-03-28T05:09:39.237Z,97676.19
2023-03-28T05:12:09.067Z,97668.25
2023-03-28T05:14:54.811Z,97675.09
2023-03-28T05:17:23.318Z,97673.72
2023-03-28T05:20:12.736Z,97680.44
2023-03-28T05:22:49.938Z,97676.59
2023-03-28T05:25:19.950Z,97676.00
2023-03-28T05:27:48.838Z,97671.81
2023-03-28T05:30:18.844Z,97680.44
2023-03-28T05:32:49.161Z,97681.19
2023-03-28T05:35:19.087Z,97683.88
2023-03-28T05:37:48.310Z,97681.53
2023-03-28T05:40:16.833Z,97690.06
2023-03-28T05:42:45.915Z,97697.53
2023-03-28T05:45:17.218Z,97698.69
2023-03-28T05:47:51.112Z,97692.75
2023-03-28T05:50:22.924Z,97694.19
2023-03-28T05:52:52.122Z,97707.16
2023-03-28T05:55:21.177Z,97700.41
2023-03-28T05:57:49.944Z,97707.88
2023-03-28T06:00:22.705Z,97710.16
2023-03-28T06:02:55.042Z,97715.41
2023-03-28T06:05:34.630Z,97722.25
2023-03-28T06:08:06.254Z,97724.56
2023-03-28T06:10:35.248Z,97732.81
2023-03-28T06:13:17.936Z,97729.59
2023-03-28T06:15:48.420Z,97738.66
2023-03-28T06:18:18.709Z,97743.38
2023-03-28T06:20:51.798Z,97742.88
2023-03-28T06:23:20.376Z,97755.09
2023-03-28T06:25:49.530Z,97757.28
2023-03-28T06:28:20.842Z,97763.38
2023-03-28T06:31:13.013Z,97763.66
2023-03-28T06:33:43.908Z,97761.06
2023-03-28T06:36:14.668Z,97767.97
2023-03-28T06:38:44.060Z,97764.28
2023-03-28T06:41:13.577Z,97762.97
2023-03-28T06:43:42.902Z,97768.53
2023-03-28T06:46:31.344Z,97775.16
2023-03-28T06:49:01.952Z,97781.50
2023-03-28T06:51:50.665Z,97784.94
2023-03-28T06:54:19.109Z,97788.56
2023-03-28T06:56:47.753Z,97788.88
2023-03-28T06:59:16.234Z,97797.91
2023-03-28T07:01:47.388Z,97798.72
2023-03-28T07:04:19.031Z,97800.59
2023-03-28T07:06:49.820Z,97807.97
2023-03-28T07:09:18.299Z,97810.34
2023-03-28T07:11:56.754Z,97810.19
2023-03-28T07:14:26.015Z,97814.16
2023-03-28T07:16:55.516Z,97814.19
2023-03-28T07:19:24.388Z,97824.19
2023-03-28T07:21:55.453Z,97826.56
2023-03-28T07:24:25.213Z,97828.38
2023-03-28T07:27:29.501Z,97826.78
2023-03-28T07:29:58.558Z,97825.91
2023-03-28T07:32:33.256Z,97824.72
2023-03-28T07:35:09.836Z,97819.59
2023-03-28T07:37:48.433Z,97823.69
2023-03-28T07:40:28.805Z,97823.88
2023-03-28T07:42:58.614Z,97832.09
2023-03-28T07:45:27.221Z,97838.00
2023-03-28T07:47:56.108Z,97842.66
2023-03-28T07:50:25.146Z,97835.00
2023-03-28T07:52:57.877Z,97848.78
2023-03-28T07:55:29.840Z,97855.28
2023-03-28T07:57:58.564Z,97851.81
2023-03-28T08:00:32.539Z,97859.84
2023-03-28T08:03:39.422Z,97858.75
2023-03-28T08:06:20.680Z,97871.25
2023-03-28T08:08:59.040Z,97857.47
2023-03-28T08:11:41.284Z,97865.34
2023-03-28T08:14:15.009Z,97862.50
2023-03-28T08:16:45.044Z,97863.56
2023-03-28T08:19:14.697Z,97870.34
2023-03-28T08:22:10.684Z,97874.47
2023-03-28T08:24:48.428Z,97878.38
2023-03-28T08:27:22.835Z,97879.03
2023-03-28T08:29:55.425Z,97876.16
2023-03-28T08:32:23.778Z,97883.00
2023-03-28T08:34:52.942Z,97886.88
2023-03-28T08:37:25.194Z,97885.22
2023-03-28T08:39:55.019Z,97885.78
2023-03-28T08:42:46.992Z,97889.31
2023-03-28T08:45:36.075Z,97898.25
2023-03-28T08:48:17.986Z,97894.19
2023-03-28T08:50:54.284Z,97890.13
2023-03-28T08:53:34.557Z,97881.06
2023-03-28T08:56:08.533Z,97883.97
2023-03-28T08:58:50.235Z,97884.41
2023-03-28T09:01:22.276Z,97889.56
2023-03-28T09:03:51.998Z,97887.53
2023-03-28T09:06:32.203Z,97897.19
2023-03-28T09:09:20.205Z,97899.63
2023-03-28T09:12:22.361Z,97902.22
2023-03-28T09:15:20.882Z,97910.28
2023-03-28T09:18:12.978Z,97913.78
2023-03-28T09:20:53.932Z,97908.72
2023-03-28T09:23:57.669Z,97912.84
2023-03-28T09:27:06.569Z,97915.31
2023-03-28T09:29:44.053Z,97914.75
2023-03-28T09:32:22.089Z,97909.34
2023-03-28T09:34:52.816Z,97910.97
2023-03-28T09:37:39.820Z,97905.59
2023-03-28T09:40:21.571Z,97911.44
2023-03-28T09:43:20.379Z,97907.50
2023-03-28T09:46:19.631Z,97911.69
2023-03-28T09:48:59.689Z,97898.22
2023-03-28T09:51:33.088Z,97909.03
2023-03-28T09:54:07.623Z,97905.81
2023-03-28T09:56:41.056Z,97913.47
2023-03-28T09:59:36.624Z,97909.97
2023-03-28T10:02:29.466Z,97907.28
2023-03-28T10:05:03.448Z,97914.56
2023-03-28T10:07:46.308Z,97914.78
2023-03-28T10:10:37.235Z,97908.00
2023-03-28T10:13:11.639Z,97906.69
2023-03-28T10:15:48.153Z,97912.47
2023-03-28T10:18:36.268Z,97896.31
2023-03-28T10:21:31.564Z,97897.53
2023-03-28T10:24:18.629Z,97892.88
2023-03-28T10:27:01.007Z,97899.59
2023-03-28T10:29:31.988Z,97897.06
2023-03-28T10:32:02.451Z,97895.50
2023-03-28T10:34:44.854Z,97904.19
2023-03-28T10:37:27.376Z,97905.09
2023-03-28T10:40:26.777Z,97914.88
2023-03-28T10:43:16.268Z,97904.41
2023-03-28T10:46:16.852Z,97901.56
2023-03-28T10:49:08.227Z,97911.59
2023-03-28T10:51:41.537Z,97906.94
2023-03-28T10:54:31.395Z,97905.00
2023-03-28T10:57:14.256Z,97909.41
2023-03-28T10:59:55.942Z,97906.25
2023-03-28T11:03:13.973Z,97909.84
2023-03-28T11:06:08.664Z,97900.19
2023-03-28T11:08:58.988Z,97906.91
2023-03-28T11:12:09.275Z,97905.94
2023-03-28T11:14:58.704Z,97890.94
2023-03-28T11:17:40.935Z,97902.94
2023-03-28T11:20:35.901Z,97896.19
2023-03-28T11:23:38.338Z,97889.00
2023-03-28T11:26:45.336Z,97889.53
2023-03-28T11:29:49.419Z,97890.59
2023-03-28T11:32:31.368Z,97882.56
2023-03-28T11:35:08.665Z,97868.25
2023-03-28T11:37:46.982Z,97872.16
2023-03-28T11:40:27.612Z,97875.09
2023-03-28T11:43:07.745Z,97872.78
2023-03-28T11:45:51.927Z,97867.03
2023-03-28T11:48:36.239Z,97872.41
2023-03-28T11:51:17.170Z,97862.72
2023-03-28T11:53:58.961Z,97869.44
2023-03-28T11:56:53.281Z,97871.38
2023-03-28T11:59:52.976Z,97859.16
2023-03-28T12:02:43.379Z,97869.16
2023-03-28T12:05:26.415Z,97866.59
2023-03-28T12:08:04.476Z,97857.06
2023-03-28T12:10:36.670Z,97855.03
2023-03-28T12:13:55.401Z,97850.09
2023-03-28T12:16:37.792Z,97842.50
2023-03-28T12:19:14.796Z,97839.78
2023-03-28T12:21:54.224Z,97835.53
2023-03-28T12:24:41.127Z,97835.91
2023-03-28T12:27:31.438Z,97830.00
2023-03-28T12:30:13.846Z,97844.25
2023-03-28T12:32:52.239Z,97843.69
2023-03-28T12:35:37.132Z,97833.63
2023-03-28T12:38:24.888Z,97825.16
2023-03-28T12:41:06.948Z,97825.84
2023-03-28T12:43:48.104Z,97835.34
2023-03-28T12:46:28.628Z,97826.34
2023-03-28T12:49:01.701Z,97839.16
2023-03-28T12:51:40.625Z,97832.72
2023-03-28T12:54:27.497Z,97844.81
2023-03-28T12:57:05.623Z,97832.94
2023-03-28T13:00:11.201Z,97834.09
2023-03-28T13:03:27.190Z,97833.16
2023-03-28T13:06:04.224Z,97836.63
2023-03-28T13:08:49.496Z,97835.38
2023-03-28T13:11:29.598Z,97832.66
2023-03-28T13:14:09.794Z,97815.53
2023-03-28T13:16:48.225Z,97818.84
2023-03-28T13:19:22.505Z,97821.97
2023-03-28T13:21:55.957Z,97826.00
2023-03-28T13:24:34.391Z,97830.88
2023-03-28T13:27:12.706Z,97824.63
2023-03-28T13:29:49.593Z,97812.97
2023-03-28T13:32:23.098Z,97811.72
2023-03-28T13:34:59.903Z,97818.94
2023-03-28T13:37:47.329Z,97810.09
2023-03-28T13:40:46.259Z,97812.84
2023-03-28T13:43:31.578Z,97806.59
2023-03-28T13:46:05.574Z,97798.94
2023-03-28T13:48:39.808Z,97802.56
2023-03-28T13:51:26.471Z,97805.16
2023-03-28T13:53:55.110Z,97800.50
2023-03-28T13:56:28.900Z,97793.84
2023-03-28T13:59:00.709Z,97797.56
2023-03-28T14:01:39.254Z,97796.22
2023-03-28T14:04:19.412Z,97796.38
2023-03-28T14:06:52.828Z,97784.28
2023-03-28T14:09:30.899Z,97783.56
2023-03-28T14:12:02.499Z,97779.22
2023-03-28T14:14:35.972Z,97771.06
2023-03-28T14:17:07.533Z,97779.31
2023-03-28T14:19:42.693Z,97773.44
2023-03-28T14:22:19.305Z,97775.00
2023-03-28T14:24:52.657Z,97777.59
2023-03-28T14:27:36.358Z,97773.78
2023-03-28T14:30:18.746Z,97767.81
2023-03-28T14:33:00.510Z,97778.22
2023-03-28T14:35:32.075Z,97765.72
2023-03-28T14:38:06.025Z,97760.53
2023-03-28T14:40:38.208Z,97761.13
2023-03-28T14:43:14.089Z,97753.34
2023-03-28T14:45:47.829Z,97759.88
2023-03-28T14:48:23.188Z,97756.75
2023-03-28T14:50:53.673Z,97758.69
2023-03-28T14:53:28.259Z,97748.28
2023-03-28T14:56:06.447Z,97750.25
2023-03-28T14:58:41.407Z,97754.81
2023-03-28T15:01:21.688Z,97755.31
2023-03-28T15:03:57.896Z,97745.59
2023-03-28T15:06:29.437Z,97754.09
2023-03-28T15:09:11.204Z,97748.56
2023-03-28T15:11:44.642Z,97739.94
2023-03-28T15:14:24.295Z,97734.50
2023-03-28T15:16:53.460Z,97733.97
2023-03-28T15:19:25.546Z,97728.63
2023-03-28T15:22:00.081Z,97722.09
2023-03-28T15:24:31.767Z,97729.59
2023-03-28T15:27:03.873Z,97727.72
2023-03-28T15:29:38.927Z,97715.38
2023-03-28T15:32:16.916Z,97713.81
2023-03-28T15:34:47.997Z,97712.72
2023-03-28T15:37:22.300Z,97710.03
2023-03-28T15:39:53.188Z,97705.41
2023-03-28T15:42:37.139Z,97702.63
2023-03-28T15:45:44.376Z,97700.97
2023-03-28T15:48:21.610Z,97702.38
2023-03-28T15:50:54.193Z,97707.22
2023-03-28T15:53:29.068Z,97709.50
2023-03-28T15:56:08.874Z,97708.97
2023-03-28T15:58:44.218Z,97710.16
2023-03-28T16:01:25.675Z,97697.81
2023-03-28T16:04:26.133Z,97697.47
2023-03-28T16:07:04.733Z,97698.09
2023-03-28T16:09:34.902Z,97702.69
2023-03-28T16:12:05.734Z,97700.91
2023-03-28T16:15:00.047Z,97686.59
2023-03-28T16:17:49.723Z,97691.97
2023-03-28T16:20:51.500Z,97698.97
2023-03-28T16:23:20.091Z,97688.91
2023-03-28T16:25:48.980Z,97683.50
2023-03-28T16:28:20.538Z,97693.84
2023-03-28T16:30:49.826Z,97682.84
2023-03-28T16:33:19.717Z,97679.28
2023-03-28T16:35:48.309Z,97683.41
2023-03-28T16:38:16.963Z,97678.81
2023-03-28T16:40:45.913Z,97682.69
2023-03-28T16:43:15.533Z,97679.06
2023-03-28T16:45:48.153Z,97677.94
2023-03-28T16:48:17.355Z,97679.97
2023-03-28T16:50:55.865Z,97688.53
2023-03-28T16:53:24.636Z,97682.97
2023-03-28T16:55:54.301Z,97674.06
2023-03-28T16:58:22.759Z,97678.63
2023-03-28T17:00:55.269Z,97676.97
2023-03-28T17:03:25.638Z,97679.22
2023-03-28T17:05:54.772Z,97673.03
2023-03-28T17:08:24.012Z,97666.63
2023-03-28T17:10:52.711Z,97666.13
2023-03-28T17:13:21.382Z,97654.69
2023-03-28T17:15:51.332Z,97663.41
2023-03-28T17:18:23.015Z,97657.47
2023-03-28T17:21:01.190Z,97657.19
2023-03-28T17:23:29.689Z,97652.88
2023-03-28T17:25:58.702Z,97652.38
2023-03-28T17:28:29.300Z,97651.63
2023-03-28T17:30:58.144Z,97654.97
2023-03-28T17:33:31.242Z,97649.88
2023-03-28T17:36:00.184Z,97649.09
2023-03-28T17:38:28.671Z,97645.03
2023-03-28T17:40:57.862Z,97656.91
2023-03-28T17:43:26.480Z,97648.47
2023-03-28T17:45:55.564Z,97646.28
2023-03-28T17:48:24.292Z,97647.34
2023-03-28T17:50:54.955Z,97644.81
2023-03-28T17:53:23.924Z,97647.16
2023-03-28T17:55:53.065Z,97640.34
2023-03-28T17:58:21.691Z,97646.75
2023-03-28T18:00:50.445Z,97641.81
2023-03-28T18:03:18.943Z,97645.31
2023-03-28T18:06:08.026Z,97628.75
2023-03-28T18:08:36.989Z,97621.34
2023-03-28T18:11:08.467Z,97629.31
2023-03-28T18:13:38.616Z,97616.06
2023-03-28T18:16:10.992Z,97620.03
2023-03-28T18:18:40.979Z,97620.38
2023-03-28T18:21:12.825Z,97618.69
2023-03-28T18:23:41.909Z,97616.66
2023-03-28T18:26:10.671Z,97618.97
2023-03-28T18:28:39.344Z,97621.41
2023-03-28T18:31:10.500Z,97621.16
2023-03-28T18:33:39.898Z,97618.16
2023-03-28T18:36:12.123Z,97616.66
2023-03-28T18:38:42.814Z,97615.22
2023-03-28T18:41:12.724Z,97609.53
2023-03-28T18:43:43.177Z,97603.34
2023-03-28T18:46:16.041Z,97608.16
2023-03-28T18:48:45.669Z,97600.44
2023-03-28T18:51:15.829Z,97602.88
2023-03-28T18:53:44.779Z,97600.06
2023-03-28T18:56:13.695Z,97611.59
2023-03-28T18:58:42.462Z,97605.50
2023-03-28T19:01:11.948Z,97608.44
2023-03-28T19:03:42.460Z,97601.84
2023-03-28T19:06:16.247Z,97591.06
2023-03-28T19:08:47.401Z,97594.94
2023-03-28T19:11:19.708Z,97595.31
2023-03-28T19:13:48.477Z,97588.50
2023-03-28T19:16:19.302Z,97592.47
2023-03-28T19:18:48.998Z,97593.22
2023-03-28T19:21:18.954Z,97586.06
2023-03-28T19:23:49.672Z,97585.19
2023-03-28T19:26:19.260Z,97588.69
2023-03-28T19:28:48.867Z,97583.91
2023-03-28T19:31:21.906Z,97592.72
2023-03-28T19:33:51.011Z,97579.09
2023-03-28T19:36:21.249Z,97580.31
2023-03-28T19:38:49.959Z,97580.13
2023-03-28T19:41:22.168Z,97577.44
2023-03-28T19:43:51.251Z,97568.66
2023-03-28T19:46:26.240Z,97561.56
2023-03-28T19:48:58.869Z,97555.50
2023-03-28T19:51:29.455Z,97560.41
2023-03-28T19:53:58.362Z,97555.81
2023-03-28T19:56:27.381Z,97555.13
2023-03-28T19:58:56.217Z,97555.13
2023-03-28T20:01:24.863Z,97556.25
2023-03-28T20:03:53.557Z,97559.31
2023-03-28T20:06:24.351Z,97550.00
2023-03-28T20:08:54.499Z,97550.66
2023-03-28T20:11:22.966Z,97545.63
2023-03-28T20:13:51.730Z,97542.78
2023-03-28T20:16:20.401Z,97550.94
2023-03-28T20:18:49.269Z,97540.78
2023-03-28T20:21:17.556Z,97541.78
2023-03-28T20:23:46.243Z,97553.38
2023-03-28T20:26:19.251Z,97555.31
2023-03-28T20:28:50.125Z,97547.00
2023-03-28T20:31:19.707Z,97552.13
2023-03-28T20:33:48.119Z,97542.19
2023-03-28T20:36:17.250Z,97539.16
2023-03-28T20:38:45.816Z,97545.50
2023-03-28T20:41:19.319Z,97548.38
2023-03-28T20:43:48.199Z,97539.84
2023-03-28T20:46:19.647Z,97537.16
2023-03-28T20:48:53.232Z,97532.09
2023-03-28T20:51:23.701Z,97527.22
2023-03-28T20:53:55.188Z,97525.09
2023-03-28T20:56:27.355Z,97528.06
2023-03-28T20:58:58.187Z,97522.53
2023-03-28T21:01:32.831Z,97517.75
2023-03-28T21:04:02.338Z,97514.28
2023-03-28T21:06:34.853Z,97506.69
2023-03-28T21:09:07.723Z,97500.94
2023-03-28T21:11:40.070Z,97500.72
2023-03-28T21:14:11.776Z,97500.50
2023-03-28T21:16:40.454Z,97495.66
2023-03-28T21:19:09.362Z,97493.81
2023-03-28T21:21:37.899Z,97490.31
2023-03-28T21:24:08.110Z,97486.22
2023-03-28T21:26:37.816Z,97487.53
2023-03-28T21:29:06.897Z,97474.28
2023-03-28T21:31:37.085Z,97480.16
2023-03-28T21:34:05.472Z,97479.88
2023-03-28T21:36:34.470Z,97473.09
2023-03-28T21:39:03.169Z,97469.41
2023-03-28T21:41:31.953Z,97469.44
2023-03-28T21:44:01.712Z,97461.94
2023-03-28T21:46:30.533Z,97458.38
2023-03-28T21:48:59.271Z,97456.53
2023-03-28T21:51:28.005Z,97454.91
2023-03-28T21:53:56.959Z,97461.13
2023-03-28T21:56:26.328Z,97456.84
2023-03-28T21:58:55.328Z,97460.06
2023-03-28T22:01:25.089Z,97462.81
2023-03-28T22:03:53.947Z,97455.81
2023-03-28T22:06:22.789Z,97463.34
2023-03-28T22:08:52.761Z,97452.03
2023-03-28T22:11:28.298Z,97448.25
2023-03-28T22:14:02.563Z,97443.84
2023-03-28T22:16:37.414Z,97436.31
2023-03-28T22:19:08.695Z,97432.53
2023-03-28T22:21:38.064Z,97427.94
2023-03-28T22:24:12.911Z,97428.75
2023-03-28T22:26:41.915Z,97422.28
2023-03-28T22:29:10.732Z,97412.94
2023-03-28T22:31:40.843Z,97422.34
2023-03-28T22:34:09.330Z,97436.66
2023-03-28T22:36:38.117Z,97437.22
2023-03-28T22:39:07.696Z,97432.91
2023-03-28T22:41:36.062Z,97426.69
2023-03-28T22:44:04.385Z,97436.16
2023-03-28T22:46:33.998Z,97424.50
2023-03-28T22:49:04.634Z,97422.84
2023-03-28T22:51:33.268Z,97423.91
2023-03-28T22:54:04.053Z,97426.28
2023-03-28T22:56:33.649Z,97425.50
2023-03-28T22:59:02.429Z,97414.47
2023-03-28T23:01:30.857Z,97414.78
2023-03-28T23:03:59.190Z,97412.88
2023-03-28T23:06:29.210Z,97419.84
2023-03-28T23:08:58.581Z,97423.91
2023-03-28T23:11:27.587Z,97442.22
2023-03-28T23:13:55.840Z,97433.03
2023-03-28T23:16:24.538Z,97430.88
2023-03-28T23:18:53.382Z,97436.28
2023-03-28T23:21:21.777Z,97443.53
2023-03-28T23:23:52.100Z,97441.66
2023-03-28T23:26:21.268Z,97443.56
2023-03-28T23:28:49.991Z,97448.72
2023-03-28T23:31:18.517Z,97459.78
2023-03-28T23:33:47.042Z,97452.78
2023-03-28T23:36:20.236Z,97447.09
2023-03-28T23:38:50.176Z,97450.91
2023-03-28T23:41:18.712Z,97464.44
2023-03-28T23:43:47.849Z,97468.75
2023-03-28T23:46:16.189Z,97467.16
2023-03-28T23:48:44.563Z,97470.19
2023-03-28T23:55:14.067Z,97471.59
2023-03-28T23:57:43.653Z,97478.38
